createdAt,value
2023-03-21T00:00:00.464Z,6.00
2023-03-21T00:00:11.215Z,5.90
2023-03-21T00:00:23.450Z,5.60
2023-03-21T00:00:35.191Z,5.80
2023-03-21T00:00:47.392Z,6.20
2023-03-21T00:00:59.160Z,6.10
2023-03-21T00:01:10.884Z,6.00
2023-03-21T00:01:22.611Z,5.50
2023-03-21T00:01:35.840Z,5.30
2023-03-21T00:01:48.064Z,5.70
2023-03-21T00:02:00.551Z,6.20
2023-03-21T00:02:13.024Z,5.90
2023-03-21T00:02:23.862Z,6.10
2023-03-21T00:02:34.682Z,6.20
2023-03-21T00:02:46.467Z,6.70
2023-03-21T00:02:58.226Z,6.70
2023-03-21T00:03:09.172Z,6.60
2023-03-21T00:03:20.929Z,6.40
2023-03-21T00:03:31.714Z,6.30
2023-03-21T00:03:43.199Z,6.20
2023-03-21T00:03:55.074Z,6.10
2023-03-21T00:04:05.865Z,6.00
2023-03-21T00:04:18.361Z,6.20
2023-03-21T00:04:37.989Z,6.00
2023-03-21T00:04:52.134Z,5.80
2023-03-21T00:05:13.390Z,6.00
2023-03-21T00:05:18.681Z,6.00
2023-03-21T00:05:29.516Z,6.70
2023-03-21T00:05:41.862Z,6.50
2023-03-21T00:05:53.029Z,6.60
2023-03-21T00:06:05.784Z,6.30
2023-03-21T00:06:17.518Z,6.10
2023-03-21T00:06:30.224Z,6.80
2023-03-21T00:06:41.003Z,6.50
2023-03-21T00:06:53.534Z,5.70
2023-03-21T00:07:04.265Z,4.90
2023-03-21T00:07:16.714Z,5.60
2023-03-21T00:07:28.572Z,6.50
2023-03-21T00:07:39.354Z,6.30
2023-03-21T00:07:50.084Z,6.30
2023-03-21T00:08:03.333Z,6.10
2023-03-21T00:08:14.105Z,5.70
2023-03-21T00:08:24.883Z,5.80
2023-03-21T00:08:37.166Z,6.40
2023-03-21T00:08:47.959Z,6.00
2023-03-21T00:09:00.467Z,5.70
2023-03-21T00:09:11.274Z,5.20
2023-03-21T00:09:23.785Z,5.00
2023-03-21T00:09:34.612Z,5.30
2023-03-21T00:09:45.395Z,5.70
2023-03-21T00:10:05.133Z,6.20
2023-03-21T00:10:18.194Z,6.80
2023-03-21T00:10:40.359Z,6.70
2023-03-21T00:10:49.014Z,5.80
2023-03-21T00:11:01.301Z,5.40
2023-03-21T00:11:12.077Z,5.60
2023-03-21T00:11:25.303Z,5.80
2023-03-21T00:11:37.090Z,5.70
2023-03-21T00:11:47.844Z,5.60
2023-03-21T00:12:00.988Z,5.10
2023-03-21T00:12:11.779Z,5.60
2023-03-21T00:12:25.167Z,5.80
2023-03-21T00:12:35.944Z,5.60
2023-03-21T00:12:46.796Z,5.60
2023-03-21T00:12:57.607Z,5.10
2023-03-21T00:13:10.831Z,5.10
2023-03-21T00:13:22.568Z,5.30
2023-03-21T00:13:34.975Z,5.80
2023-03-21T00:13:46.997Z,5.30
2023-03-21T00:13:59.814Z,4.90
2023-03-21T00:14:11.624Z,5.00
2023-03-21T00:14:24.202Z,5.20
2023-03-21T00:14:36.784Z,5.00
2023-03-21T00:14:47.719Z,4.60
2023-03-21T00:14:59.458Z,4.40
2023-03-21T00:15:11.804Z,5.10
2023-03-21T00:15:25.001Z,5.10
2023-03-21T00:15:48.448Z,5.00
2023-03-21T00:16:06.870Z,5.20
2023-03-21T00:16:17.987Z,5.10
2023-03-21T00:16:31.036Z,4.50
2023-03-21T00:16:44.179Z,4.80
2023-03-21T00:16:55.297Z,5.20
2023-03-21T00:17:08.088Z,4.80
2023-03-21T00:17:19.935Z,4.70
2023-03-21T00:17:30.727Z,4.80
2023-03-21T00:17:43.755Z,4.40
2023-03-21T00:17:56.039Z,4.20
2023-03-21T00:18:07.952Z,5.30
2023-03-21T00:18:20.398Z,7.90
2023-03-21T00:18:32.120Z,10.50
2023-03-21T00:18:42.896Z,14.00
2023-03-21T00:18:55.396Z,12.40
2023-03-21T00:19:06.155Z,10.50
2023-03-21T00:19:17.863Z,7.10
2023-03-21T00:19:28.657Z,5.90
2023-03-21T00:19:40.406Z,5.10
2023-03-21T00:19:51.648Z,5.60
2023-03-21T00:20:03.408Z,5.60
2023-03-21T00:20:15.686Z,4.90
2023-03-21T00:20:27.411Z,4.90
2023-03-21T00:20:39.887Z,5.10
2023-03-21T00:20:52.020Z,5.00
2023-03-21T00:21:35.594Z,5.10
2023-03-21T00:22:05.874Z,4.90
2023-03-21T00:22:08.699Z,4.00
2023-03-21T00:22:21.924Z,4.00
2023-03-21T00:22:32.696Z,4.30
2023-03-21T00:22:45.205Z,4.60
2023-03-21T00:23:00.374Z,5.30
2023-03-21T00:23:12.167Z,4.90
2023-03-21T00:23:23.906Z,4.30
2023-03-21T00:23:36.619Z,4.20
2023-03-21T00:23:49.097Z,5.20
2023-03-21T00:24:00.886Z,6.40
2023-03-21T00:24:12.898Z,6.30
2023-03-21T00:24:23.717Z,5.90
2023-03-21T00:24:37.014Z,5.30
2023-03-21T00:24:47.815Z,4.70
2023-03-21T00:24:59.609Z,4.70
2023-03-21T00:25:12.137Z,4.80
2023-03-21T00:25:24.385Z,4.80
2023-03-21T00:25:36.398Z,5.00
2023-03-21T00:25:48.937Z,4.90
2023-03-21T00:25:59.716Z,5.20
2023-03-21T00:26:11.476Z,5.00
2023-03-21T00:26:22.278Z,4.70
2023-03-21T00:26:33.167Z,4.90
2023-03-21T00:26:46.382Z,5.10
2023-03-21T00:27:15.848Z,5.50
2023-03-21T00:27:42.618Z,5.50
2023-03-21T00:27:50.396Z,5.10
2023-03-21T00:28:05.503Z,5.50
2023-03-21T00:28:08.823Z,6.20
2023-03-21T00:28:21.318Z,6.00
2023-03-21T00:28:32.090Z,5.10
2023-03-21T00:28:44.687Z,5.00
2023-03-21T00:28:56.422Z,5.50
2023-03-21T00:29:07.233Z,5.70
2023-03-21T00:29:18.964Z,5.30
2023-03-21T00:29:29.737Z,5.60
2023-03-21T00:29:41.471Z,5.60
2023-03-21T00:29:52.248Z,6.70
2023-03-21T00:30:06.016Z,8.20
2023-03-21T00:30:18.475Z,9.20
2023-03-21T00:30:30.926Z,8.80
2023-03-21T00:30:44.689Z,8.50
2023-03-21T00:30:59.010Z,8.50
2023-03-21T00:31:09.758Z,7.90
2023-03-21T00:31:21.505Z,8.30
2023-03-21T00:31:33.960Z,7.80
2023-03-21T00:31:46.194Z,7.10
2023-03-21T00:31:58.430Z,6.80
2023-03-21T00:32:10.986Z,6.80
2023-03-21T00:32:22.768Z,7.40
2023-03-21T00:32:37.490Z,7.30
2023-03-21T00:32:56.582Z,6.40
2023-03-21T00:33:21.753Z,6.60
2023-03-21T00:33:23.491Z,7.50
2023-03-21T00:33:34.328Z,7.80
2023-03-21T00:33:46.828Z,8.20
2023-03-21T00:33:59.273Z,8.50
2023-03-21T00:34:31.912Z,7.90
2023-03-21T00:34:48.423Z,7.10
2023-03-21T00:35:11.883Z,7.10
2023-03-21T00:35:47.931Z,7.10
2023-03-21T00:35:58.399Z,6.50
2023-03-21T00:36:05.378Z,6.80
2023-03-21T00:36:17.657Z,6.70
2023-03-21T00:36:29.471Z,7.20
2023-03-21T00:36:41.737Z,7.20
2023-03-21T00:36:52.615Z,7.40
2023-03-21T00:37:05.893Z,6.90
2023-03-21T00:37:17.667Z,7.20
2023-03-21T00:37:28.440Z,7.00
2023-03-21T00:37:40.910Z,6.30
2023-03-21T00:37:51.720Z,6.20
2023-03-21T00:38:05.422Z,5.90
2023-03-21T00:38:17.164Z,5.50
2023-03-21T00:38:29.651Z,5.50
2023-03-21T00:38:40.422Z,5.70
2023-03-21T00:38:52.910Z,5.70
2023-03-21T00:39:05.359Z,5.50
2023-03-21T00:39:17.240Z,5.70
2023-03-21T00:39:28.001Z,5.70
2023-03-21T00:39:39.777Z,5.70
2023-03-21T00:39:50.560Z,5.90
2023-03-21T00:40:02.343Z,5.50
2023-03-21T00:40:26.786Z,5.80
2023-03-21T00:40:35.362Z,6.70
2023-03-21T00:40:49.427Z,6.70
2023-03-21T00:41:07.893Z,6.20
2023-03-21T00:41:35.156Z,6.10
2023-03-21T00:41:42.785Z,6.70
2023-03-21T00:41:55.863Z,6.10
2023-03-21T00:42:07.503Z,6.20
2023-03-21T00:42:20.058Z,7.00
2023-03-21T00:42:31.780Z,8.20
2023-03-21T00:42:44.261Z,8.70
2023-03-21T00:42:56.756Z,8.60
2023-03-21T00:43:09.190Z,8.50
2023-03-21T00:43:21.479Z,7.90
2023-03-21T00:43:35.096Z,8.70
2023-03-21T00:43:46.883Z,11.20
2023-03-21T00:43:58.653Z,13.90
2023-03-21T00:44:09.426Z,16.80
2023-03-21T00:44:20.263Z,18.40
2023-03-21T00:44:32.017Z,16.00
2023-03-21T00:44:45.251Z,13.70
2023-03-21T00:44:56.971Z,12.20
2023-03-21T00:45:07.811Z,12.90
2023-03-21T00:45:20.332Z,12.80
2023-03-21T00:45:33.050Z,14.30
2023-03-21T00:45:43.814Z,17.00
2023-03-21T00:45:56.294Z,16.70
2023-03-21T00:46:08.056Z,14.40
2023-03-21T00:46:21.752Z,13.00
2023-03-21T00:46:44.083Z,12.20
2023-03-21T00:47:04.462Z,11.00
2023-03-21T00:47:08.057Z,10.90
2023-03-21T00:47:24.067Z,10.70
2023-03-21T00:47:37.905Z,9.60
2023-03-21T00:47:49.809Z,8.80
2023-03-21T00:48:00.855Z,9.10
2023-03-21T00:48:13.509Z,8.90
2023-03-21T00:48:26.007Z,10.60
2023-03-21T00:48:37.886Z,11.80
2023-03-21T00:48:49.692Z,10.40
2023-03-21T00:49:01.656Z,8.60
2023-03-21T00:49:13.914Z,7.20
2023-03-21T00:49:26.162Z,7.00
2023-03-21T00:49:39.928Z,6.60
2023-03-21T00:49:51.803Z,6.90
2023-03-21T00:50:03.546Z,6.60
2023-03-21T00:50:15.275Z,6.30
2023-03-21T00:50:26.053Z,6.20
2023-03-21T00:50:37.787Z,6.20
2023-03-21T00:50:51.001Z,6.30
2023-03-21T00:51:03.464Z,6.90
2023-03-21T00:51:14.262Z,9.80
2023-03-21T00:51:26.784Z,11.80
2023-03-21T00:51:40.518Z,13.20
2023-03-21T00:51:53.365Z,11.10
2023-03-21T00:52:15.084Z,9.00
2023-03-21T00:52:34.198Z,7.60
2023-03-21T00:52:40.931Z,7.20
2023-03-21T00:52:53.677Z,7.30
2023-03-21T00:53:05.465Z,8.30
2023-03-21T00:53:17.280Z,9.60
2023-03-21T00:53:28.305Z,10.80
2023-03-21T00:53:39.113Z,12.30
2023-03-21T00:53:50.842Z,12.70
2023-03-21T00:54:03.305Z,13.10
2023-03-21T00:54:14.076Z,14.80
2023-03-21T00:54:25.783Z,18.70
2023-03-21T00:54:36.541Z,20.40
2023-03-21T00:54:47.282Z,18.90
2023-03-21T00:54:59.728Z,17.10
2023-03-21T00:55:14.565Z,17.60
2023-03-21T00:55:27.055Z,16.80
2023-03-21T00:55:39.495Z,13.80
2023-03-21T00:55:51.264Z,13.80
2023-03-21T00:56:02.054Z,14.30
2023-03-21T00:56:13.825Z,14.00
2023-03-21T00:56:25.573Z,12.80
2023-03-21T00:56:37.324Z,13.30
2023-03-21T00:56:49.056Z,13.20
2023-03-21T00:57:01.557Z,12.50
2023-03-21T00:57:14.544Z,11.10
2023-03-21T00:57:38.070Z,8.90
2023-03-21T00:57:45.296Z,8.40
2023-03-21T00:58:02.346Z,9.30
2023-03-21T00:58:15.744Z,8.00
2023-03-21T00:58:28.023Z,9.30
2023-03-21T00:58:39.803Z,10.80
2023-03-21T00:58:50.576Z,12.50
2023-03-21T00:59:03.048Z,12.50
2023-03-21T00:59:15.529Z,13.40
2023-03-21T00:59:27.267Z,12.90
2023-03-21T00:59:39.725Z,10.60
2023-03-21T00:59:52.168Z,8.70
2023-03-21T01:00:03.956Z,8.20
2023-03-21T01:00:14.753Z,7.40
2023-03-21T01:00:26.556Z,7.20
2023-03-21T01:00:38.821Z,6.90
2023-03-21T01:00:53.514Z,7.50
2023-03-21T01:01:05.330Z,7.20
2023-03-21T01:01:16.196Z,6.40
2023-03-21T01:01:28.706Z,6.50
2023-03-21T01:01:41.278Z,6.50
2023-03-21T01:01:52.108Z,6.90
2023-03-21T01:02:03.871Z,6.90
2023-03-21T01:02:15.698Z,6.50
2023-03-21T01:02:28.466Z,6.60
2023-03-21T01:02:41.921Z,7.40
2023-03-21T01:03:00.189Z,8.60
2023-03-21T01:03:21.392Z,9.40
2023-03-21T01:03:25.707Z,8.20
2023-03-21T01:03:37.491Z,7.60
2023-03-21T01:03:49.967Z,8.60
2023-03-21T01:04:02.472Z,8.50
2023-03-21T01:04:14.268Z,7.70
2023-03-21T01:04:25.079Z,7.50
2023-03-21T01:04:36.871Z,7.20
2023-03-21T01:04:47.644Z,6.40
2023-03-21T01:04:59.416Z,6.20
2023-03-21T01:05:11.169Z,6.20
2023-03-21T01:05:22.981Z,6.30
2023-03-21T01:05:37.531Z,6.30
2023-03-21T01:05:48.509Z,7.50
2023-03-21T01:06:00.304Z,8.50
2023-03-21T01:06:12.566Z,9.00
2023-03-21T01:06:24.444Z,8.50
2023-03-21T01:06:35.248Z,8.10
2023-03-21T01:06:46.083Z,7.30
2023-03-21T01:06:56.967Z,7.30
2023-03-21T01:07:08.738Z,7.00
2023-03-21T01:07:19.669Z,7.50
2023-03-21T01:07:31.457Z,7.90
2023-03-21T01:07:42.283Z,8.00
2023-03-21T01:07:54.058Z,7.20
2023-03-21T01:08:20.690Z,6.80
2023-03-21T01:08:29.350Z,6.30
2023-03-21T01:08:51.752Z,7.30
2023-03-21T01:08:54.723Z,8.50
2023-03-21T01:09:07.751Z,8.00
2023-03-21T01:09:18.508Z,7.00
2023-03-21T01:09:29.342Z,6.70
2023-03-21T01:09:40.099Z,7.20
2023-03-21T01:09:52.339Z,7.00
2023-03-21T01:10:05.088Z,6.70
2023-03-21T01:10:15.931Z,6.40
2023-03-21T01:10:26.739Z,6.50
2023-03-21T01:10:37.569Z,6.20
2023-03-21T01:10:49.356Z,6.00
2023-03-21T01:11:01.187Z,6.40
2023-03-21T01:11:12.974Z,6.80
2023-03-21T01:11:25.510Z,5.90
2023-03-21T01:11:37.311Z,5.70
2023-03-21T01:11:49.137Z,5.70
2023-03-21T01:11:59.969Z,5.90
2023-03-21T01:12:10.748Z,6.00
2023-03-21T01:12:23.071Z,6.00
2023-03-21T01:12:33.860Z,6.00
2023-03-21T01:12:47.079Z,6.00
2023-03-21T01:12:57.943Z,6.10
2023-03-21T01:13:09.750Z,6.10
2023-03-21T01:13:20.564Z,6.10
2023-03-21T01:13:34.670Z,6.10
2023-03-21T01:13:54.752Z,6.20
2023-03-21T01:14:21.307Z,6.20
2023-03-21T01:14:23.089Z,6.00
2023-03-21T01:14:35.371Z,6.30
2023-03-21T01:14:46.171Z,6.20
2023-03-21T01:14:56.960Z,6.20
2023-03-21T01:15:07.777Z,6.30
2023-03-21T01:15:18.581Z,6.30
2023-03-21T01:15:30.330Z,6.20
2023-03-21T01:15:42.830Z,5.90
2023-03-21T01:15:54.836Z,6.00
2023-03-21T01:16:05.690Z,6.10
2023-03-21T01:16:17.474Z,6.40
2023-03-21T01:16:29.278Z,5.60
2023-03-21T01:16:41.802Z,5.70
2023-03-21T01:16:53.778Z,5.60
2023-03-21T01:17:04.569Z,5.70
2023-03-21T01:17:15.359Z,5.70
2023-03-21T01:17:26.200Z,5.50
2023-03-21T01:17:36.980Z,5.10
2023-03-21T01:17:48.759Z,5.10
2023-03-21T01:17:59.561Z,6.00
2023-03-21T01:18:10.371Z,5.90
2023-03-21T01:18:22.164Z,5.90
2023-03-21T01:18:34.629Z,5.70
2023-03-21T01:18:45.383Z,6.30
2023-03-21T01:18:56.229Z,5.90
2023-03-21T01:19:11.936Z,6.20
2023-03-21T01:19:37.667Z,6.40
2023-03-21T01:19:51.246Z,6.70
2023-03-21T01:19:54.308Z,6.20
2023-03-21T01:20:05.084Z,6.20
2023-03-21T01:20:18.790Z,6.10
2023-03-21T01:20:29.658Z,6.20
2023-03-21T01:20:41.421Z,6.20
2023-03-21T01:20:52.242Z,7.10
2023-03-21T01:21:03.041Z,7.10
2023-03-21T01:21:13.802Z,6.20
2023-03-21T01:21:26.304Z,5.90
2023-03-21T01:21:37.104Z,6.10
2023-03-21T01:21:48.860Z,6.60
2023-03-21T01:22:01.620Z,6.70
2023-03-21T01:22:12.483Z,6.20
2023-03-21T01:22:25.001Z,5.80
2023-03-21T01:22:37.510Z,5.40
2023-03-21T01:22:49.240Z,5.90
2023-03-21T01:23:01.431Z,6.20
2023-03-21T01:23:12.263Z,6.80
2023-03-21T01:23:23.995Z,7.00
2023-03-21T01:23:37.207Z,7.00
2023-03-21T01:23:48.037Z,6.00
2023-03-21T01:24:00.296Z,6.20
2023-03-21T01:24:12.753Z,6.50
2023-03-21T01:24:25.004Z,6.50
2023-03-21T01:24:40.348Z,6.70
2023-03-21T01:24:56.878Z,6.90
2023-03-21T01:25:21.518Z,7.40
2023-03-21T01:25:25.735Z,7.10
2023-03-21T01:25:37.790Z,6.70
2023-03-21T01:25:51.614Z,6.70
2023-03-21T01:26:04.071Z,6.10
2023-03-21T01:26:17.332Z,6.20
2023-03-21T01:26:29.841Z,6.30
2023-03-21T01:26:41.649Z,6.30
2023-03-21T01:26:54.091Z,6.00
2023-03-21T01:27:06.701Z,6.60
2023-03-21T01:27:19.313Z,6.70
2023-03-21T01:27:33.635Z,6.40
2023-03-21T01:27:44.430Z,7.00
2023-03-21T01:27:56.182Z,7.00
2023-03-21T01:28:07.015Z,6.80
2023-03-21T01:28:20.261Z,6.90
2023-03-21T01:28:32.751Z,6.70
2023-03-21T01:28:45.301Z,6.70
2023-03-21T01:28:58.097Z,6.90
2023-03-21T01:29:08.937Z,7.10
2023-03-21T01:29:19.805Z,6.40
2023-03-21T01:29:31.555Z,6.50
2023-03-21T01:29:45.309Z,6.30
2023-03-21T01:29:58.634Z,6.50
2023-03-21T01:30:18.888Z,6.50
2023-03-21T01:30:33.914Z,6.30
2023-03-21T01:30:45.703Z,6.40
2023-03-21T01:30:57.480Z,6.40
2023-03-21T01:31:08.334Z,6.60
2023-03-21T01:31:19.135Z,6.60
2023-03-21T01:31:31.637Z,6.50
2023-03-21T01:31:42.542Z,6.70
2023-03-21T01:31:55.673Z,6.80
2023-03-21T01:32:07.974Z,7.00
2023-03-21T01:32:18.804Z,6.20
2023-03-21T01:32:29.704Z,6.40
2023-03-21T01:32:42.152Z,6.50
2023-03-21T01:32:54.605Z,6.90
2023-03-21T01:33:07.095Z,6.10
2023-03-21T01:33:19.534Z,6.30
2023-03-21T01:33:30.277Z,6.20
2023-03-21T01:33:42.742Z,6.40
2023-03-21T01:33:55.245Z,6.20
2023-03-21T01:34:06.063Z,6.40
2023-03-21T01:34:16.856Z,6.60
2023-03-21T01:34:27.749Z,6.60
2023-03-21T01:34:38.566Z,6.70
2023-03-21T01:34:50.337Z,6.00
2023-03-21T01:35:01.095Z,6.00
2023-03-21T01:35:13.345Z,6.80
2023-03-21T01:35:24.173Z,6.50
2023-03-21T01:35:47.964Z,6.10
2023-03-21T01:36:03.144Z,5.70
2023-03-21T01:36:13.482Z,6.20
2023-03-21T01:36:26.301Z,6.60
2023-03-21T01:36:38.795Z,7.10
2023-03-21T01:36:50.559Z,6.50
2023-03-21T01:37:02.833Z,6.00
2023-03-21T01:37:15.344Z,6.10
2023-03-21T01:37:27.140Z,6.40
2023-03-21T01:37:38.943Z,6.10
2023-03-21T01:37:50.734Z,6.30
2023-03-21T01:38:01.617Z,6.70
2023-03-21T01:38:12.410Z,6.70
2023-03-21T01:38:23.222Z,6.70
2023-03-21T01:38:34.974Z,6.70
2023-03-21T01:38:45.767Z,6.00
2023-03-21T01:38:56.604Z,5.90
2023-03-21T01:39:09.100Z,6.30
2023-03-21T01:39:22.331Z,6.80
2023-03-21T01:39:33.135Z,6.30
2023-03-21T01:39:43.969Z,6.30
2023-03-21T01:39:54.804Z,6.10
2023-03-21T01:40:07.278Z,6.10
2023-03-21T01:40:18.061Z,6.00
2023-03-21T01:40:30.535Z,6.00
2023-03-21T01:40:43.018Z,6.10
2023-03-21T01:40:54.796Z,6.30
2023-03-21T01:41:18.689Z,6.70
2023-03-21T01:41:26.333Z,6.60
2023-03-21T01:41:43.439Z,6.70
2023-03-21T01:41:55.685Z,7.30
2023-03-21T01:42:06.465Z,7.10
2023-03-21T01:42:19.469Z,7.60
2023-03-21T01:42:31.713Z,6.90
2023-03-21T01:42:44.236Z,6.30
2023-03-21T01:42:56.239Z,6.00
2023-03-21T01:43:08.122Z,6.00
2023-03-21T01:43:18.924Z,6.40
2023-03-21T01:43:30.720Z,6.10
2023-03-21T01:43:43.212Z,6.50
2023-03-21T01:43:53.960Z,6.50
2023-03-21T01:44:04.730Z,6.80
2023-03-21T01:44:17.000Z,6.40
2023-03-21T01:44:27.784Z,6.40
2023-03-21T01:44:38.557Z,6.30
2023-03-21T01:44:49.355Z,6.40
2023-03-21T01:45:00.168Z,6.20
2023-03-21T01:45:11.946Z,6.00
2023-03-21T01:45:22.725Z,6.10
2023-03-21T01:45:35.321Z,6.30
2023-03-21T01:45:47.987Z,6.70
2023-03-21T01:45:58.906Z,6.70
2023-03-21T01:46:10.053Z,6.70
2023-03-21T01:46:21.089Z,6.50
2023-03-21T01:46:46.194Z,6.70
2023-03-21T01:47:09.680Z,8.30
2023-03-21T01:47:12.514Z,7.50
2023-03-21T01:47:24.377Z,6.40
2023-03-21T01:47:36.906Z,6.50
2023-03-21T01:47:49.699Z,6.30
2023-03-21T01:48:04.138Z,6.30
2023-03-21T01:48:17.892Z,6.60
2023-03-21T01:48:30.526Z,7.00
2023-03-21T01:48:42.987Z,6.40
2023-03-21T01:48:54.717Z,6.30
2023-03-21T01:49:05.497Z,6.50
2023-03-21T01:49:16.310Z,6.70
2023-03-21T01:49:28.586Z,6.80
2023-03-21T01:49:40.977Z,6.50
2023-03-21T01:49:52.745Z,6.60
2023-03-21T01:50:05.257Z,6.50
2023-03-21T01:50:18.247Z,6.40
2023-03-21T01:50:29.038Z,6.10
2023-03-21T01:50:41.580Z,6.60
2023-03-21T01:50:52.388Z,6.80
2023-03-21T01:51:04.846Z,6.70
2023-03-21T01:51:15.655Z,6.80
2023-03-21T01:51:28.222Z,6.90
2023-03-21T01:51:40.678Z,6.70
2023-03-21T01:51:52.531Z,6.00
2023-03-21T01:52:11.522Z,6.30
2023-03-21T01:52:33.475Z,6.70
2023-03-21T01:52:38.541Z,6.30
2023-03-21T01:52:52.688Z,6.50
2023-03-21T01:53:05.406Z,6.50
2023-03-21T01:53:17.185Z,6.40
2023-03-21T01:53:29.639Z,6.50
2023-03-21T01:53:41.460Z,6.60
2023-03-21T01:53:53.215Z,6.50
2023-03-21T01:54:04.030Z,6.60
2023-03-21T01:54:14.817Z,6.70
2023-03-21T01:54:27.307Z,6.40
2023-03-21T01:54:39.818Z,6.00
2023-03-21T01:54:51.569Z,6.00
2023-03-21T01:55:02.418Z,6.40
2023-03-21T01:55:13.192Z,6.50
2023-03-21T01:55:23.990Z,6.90
2023-03-21T01:55:36.815Z,6.50
2023-03-21T01:55:48.672Z,6.50
2023-03-21T01:55:59.451Z,6.90
2023-03-21T01:56:11.947Z,6.90
2023-03-21T01:56:22.714Z,7.60
2023-03-21T01:56:33.511Z,7.00
2023-03-21T01:56:44.341Z,7.10
2023-03-21T01:56:56.897Z,6.90
2023-03-21T01:57:08.650Z,6.60
2023-03-21T01:57:21.159Z,6.60
2023-03-21T01:57:42.447Z,6.90
2023-03-21T01:58:03.912Z,7.00
2023-03-21T01:58:07.274Z,6.90
2023-03-21T01:58:20.280Z,7.40
2023-03-21T01:58:33.522Z,7.50
2023-03-21T01:58:44.300Z,7.10
2023-03-21T01:58:56.091Z,7.00
2023-03-21T01:59:06.970Z,6.70
2023-03-21T01:59:19.231Z,6.20
2023-03-21T01:59:31.044Z,6.00
2023-03-21T01:59:41.853Z,6.10
2023-03-21T01:59:54.327Z,6.00
2023-03-21T02:00:05.108Z,6.20
2023-03-21T02:00:16.120Z,6.50
2023-03-21T02:00:27.870Z,6.30
2023-03-21T02:00:38.795Z,6.10
2023-03-21T02:00:51.102Z,6.30
2023-03-21T02:01:01.892Z,6.40
2023-03-21T02:01:14.683Z,6.80
2023-03-21T02:01:25.519Z,6.60
2023-03-21T02:01:37.744Z,6.30
2023-03-21T02:01:50.220Z,6.30
2023-03-21T02:02:01.997Z,6.30
2023-03-21T02:02:14.980Z,6.80
2023-03-21T02:02:25.810Z,7.40
2023-03-21T02:02:38.530Z,7.20
2023-03-21T02:02:49.740Z,6.80
2023-03-21T02:03:11.634Z,6.50
2023-03-21T02:03:33.369Z,6.60
2023-03-21T02:03:36.535Z,7.00
2023-03-21T02:03:49.203Z,7.30
2023-03-21T02:04:00.027Z,6.70
2023-03-21T02:04:10.939Z,6.80
2023-03-21T02:04:21.839Z,6.90
2023-03-21T02:04:32.600Z,6.90
2023-03-21T02:04:44.912Z,6.20
2023-03-21T02:04:55.653Z,6.00
2023-03-21T02:05:06.452Z,6.20
2023-03-21T02:05:19.697Z,6.00
2023-03-21T02:05:30.470Z,6.00
2023-03-21T02:05:41.256Z,6.30
2023-03-21T02:05:52.290Z,6.40
2023-03-21T02:06:03.113Z,6.60
2023-03-21T02:06:13.907Z,6.10
2023-03-21T02:06:27.139Z,6.20
2023-03-21T02:06:37.933Z,5.80
2023-03-21T02:06:49.729Z,6.20
2023-03-21T02:07:00.481Z,6.60
2023-03-21T02:07:13.244Z,7.20
2023-03-21T02:07:26.515Z,7.10
2023-03-21T02:07:39.013Z,7.00
2023-03-21T02:07:51.512Z,7.00
2023-03-21T02:08:03.292Z,7.10
2023-03-21T02:08:16.471Z,6.60
2023-03-21T02:08:38.828Z,6.70
2023-03-21T02:08:46.821Z,7.20
2023-03-21T02:08:57.568Z,6.70
2023-03-21T02:09:10.036Z,6.60
2023-03-21T02:09:23.771Z,6.50
2023-03-21T02:09:36.712Z,6.50
2023-03-21T02:09:48.485Z,6.60
2023-03-21T02:09:59.281Z,6.90
2023-03-21T02:10:10.070Z,6.90
2023-03-21T02:10:22.311Z,6.90
2023-03-21T02:10:33.122Z,7.00
2023-03-21T02:10:43.932Z,7.20
2023-03-21T02:10:55.701Z,7.30
2023-03-21T02:11:08.161Z,7.20
2023-03-21T02:11:19.902Z,6.50
2023-03-21T02:11:31.695Z,6.80
2023-03-21T02:11:44.172Z,5.90
2023-03-21T02:11:56.652Z,6.10
2023-03-21T02:12:08.385Z,6.90
2023-03-21T02:12:22.102Z,7.40
2023-03-21T02:12:34.604Z,7.20
2023-03-21T02:12:45.372Z,7.50
2023-03-21T02:12:58.623Z,6.90
2023-03-21T02:13:10.351Z,6.50
2023-03-21T02:13:23.596Z,6.40
2023-03-21T02:13:36.108Z,6.70
2023-03-21T02:13:48.729Z,7.30
2023-03-21T02:14:06.641Z,7.70
2023-03-21T02:14:26.573Z,7.80
2023-03-21T02:14:33.687Z,7.50
2023-03-21T02:14:44.502Z,7.10
2023-03-21T02:14:57.046Z,6.90
2023-03-21T02:15:09.544Z,6.80
2023-03-21T02:15:22.313Z,7.60
2023-03-21T02:15:34.692Z,7.80
2023-03-21T02:15:45.523Z,8.10
2023-03-21T02:15:56.265Z,7.80
2023-03-21T02:16:09.496Z,7.90
2023-03-21T02:16:20.335Z,7.60
2023-03-21T02:16:32.431Z,7.10
2023-03-21T02:16:43.264Z,7.60
2023-03-21T02:16:55.805Z,7.80
2023-03-21T02:17:09.047Z,7.50
2023-03-21T02:17:20.791Z,6.70
2023-03-21T02:17:33.008Z,6.50
2023-03-21T02:17:45.482Z,6.60
2023-03-21T02:17:58.386Z,6.60
2023-03-21T02:18:10.174Z,6.40
2023-03-21T02:18:20.964Z,6.30
2023-03-21T02:18:33.457Z,6.70
2023-03-21T02:18:45.206Z,6.80
2023-03-21T02:18:59.995Z,7.30
2023-03-21T02:19:11.542Z,7.60
2023-03-21T02:19:31.941Z,7.80
2023-03-21T02:19:50.963Z,7.10
2023-03-21T02:19:58.290Z,6.70
2023-03-21T02:20:11.309Z,7.40
2023-03-21T02:20:22.148Z,7.80
2023-03-21T02:20:34.397Z,7.30
2023-03-21T02:20:46.930Z,6.70
2023-03-21T02:20:57.725Z,6.30
2023-03-21T02:21:10.185Z,7.00
2023-03-21T02:21:21.057Z,7.20
2023-03-21T02:21:32.805Z,7.20
2023-03-21T02:21:43.586Z,7.30
2023-03-21T02:21:55.349Z,7.50
2023-03-21T02:22:07.338Z,7.40
2023-03-21T02:22:19.320Z,6.90
2023-03-21T02:22:31.094Z,6.50
2023-03-21T02:22:43.562Z,6.70
2023-03-21T02:22:55.856Z,6.50
2023-03-21T02:23:07.626Z,6.40
2023-03-21T02:23:20.076Z,6.40
2023-03-21T02:23:30.871Z,6.90
2023-03-21T02:23:43.376Z,6.80
2023-03-21T02:23:56.253Z,6.40
2023-03-21T02:24:08.007Z,6.40
2023-03-21T02:24:19.755Z,6.60
2023-03-21T02:24:32.244Z,6.80
2023-03-21T02:24:48.742Z,6.90
2023-03-21T02:25:04.199Z,6.40
2023-03-21T02:25:21.753Z,6.40
2023-03-21T02:25:31.046Z,7.80
2023-03-21T02:25:42.828Z,7.90
2023-03-21T02:25:55.142Z,6.60
2023-03-21T02:26:05.963Z,6.90
2023-03-21T02:26:16.704Z,6.80
2023-03-21T02:26:36.170Z,7.20
2023-03-21T02:26:45.152Z,7.30
2023-03-21T02:27:04.683Z,7.50
2023-03-21T02:27:17.617Z,7.20
2023-03-21T02:27:29.409Z,6.50
2023-03-21T02:27:40.210Z,6.50
2023-03-21T02:27:52.447Z,6.30
2023-03-21T02:28:05.688Z,7.00
2023-03-21T02:28:17.946Z,7.20
2023-03-21T02:28:28.767Z,7.00
2023-03-21T02:28:39.650Z,6.60
2023-03-21T02:28:52.169Z,6.60
2023-03-21T02:29:04.648Z,7.00
2023-03-21T02:29:15.486Z,7.10
2023-03-21T02:29:27.247Z,6.80
2023-03-21T02:29:40.469Z,6.80
2023-03-21T02:29:51.280Z,6.60
2023-03-21T02:30:03.796Z,6.40
2023-03-21T02:30:26.556Z,6.30
2023-03-21T02:30:39.888Z,6.40
2023-03-21T02:30:52.223Z,6.30
2023-03-21T02:31:03.265Z,6.80
2023-03-21T02:31:14.055Z,6.70
2023-03-21T02:31:24.866Z,6.70
2023-03-21T02:31:36.692Z,6.30
2023-03-21T02:31:49.241Z,6.40
2023-03-21T02:32:15.175Z,6.40
2023-03-21T02:32:28.362Z,6.50
2023-03-21T02:32:37.835Z,6.10
2023-03-21T02:32:49.972Z,6.50
2023-03-21T02:33:01.720Z,6.60
2023-03-21T02:33:12.511Z,7.30
2023-03-21T02:33:23.272Z,7.10
2023-03-21T02:33:35.029Z,7.20
2023-03-21T02:33:45.880Z,7.20
2023-03-21T02:33:56.669Z,6.90
2023-03-21T02:34:09.201Z,7.30
2023-03-21T02:34:21.672Z,7.40
2023-03-21T02:34:33.426Z,7.00
2023-03-21T02:34:44.230Z,7.10
2023-03-21T02:34:55.090Z,7.30
2023-03-21T02:35:05.860Z,7.70
2023-03-21T02:35:18.083Z,7.30
2023-03-21T02:35:28.876Z,6.90
2023-03-21T02:35:47.189Z,6.70
2023-03-21T02:36:02.972Z,6.90
2023-03-21T02:36:14.886Z,7.30
2023-03-21T02:36:28.297Z,7.50
2023-03-21T02:36:41.294Z,7.40
2023-03-21T02:36:53.042Z,7.90
2023-03-21T02:37:05.514Z,7.70
2023-03-21T02:37:18.673Z,7.20
2023-03-21T02:37:37.704Z,7.20
2023-03-21T02:37:52.038Z,6.90
2023-03-21T02:38:03.222Z,7.40
2023-03-21T02:38:15.021Z,7.20
2023-03-21T02:38:26.762Z,6.90
2023-03-21T02:38:39.084Z,6.40
2023-03-21T02:38:50.845Z,6.20
2023-03-21T02:39:05.613Z,6.60
2023-03-21T02:39:17.383Z,7.10
2023-03-21T02:39:28.151Z,6.90
2023-03-21T02:39:39.005Z,6.80
2023-03-21T02:39:51.323Z,6.50
2023-03-21T02:40:02.152Z,6.80
2023-03-21T02:40:14.368Z,6.90
2023-03-21T02:40:25.172Z,7.00
2023-03-21T02:40:37.897Z,7.20
2023-03-21T02:40:48.785Z,7.30
2023-03-21T02:41:03.451Z,7.50
2023-03-21T02:41:18.968Z,6.80
2023-03-21T02:41:39.540Z,6.90
2023-03-21T02:41:47.280Z,7.40
2023-03-21T02:41:58.052Z,7.10
2023-03-21T02:42:09.838Z,7.30
2023-03-21T02:42:21.594Z,6.90
2023-03-21T02:42:35.259Z,7.30
2023-03-21T02:42:54.831Z,6.70
2023-03-21T02:43:07.214Z,6.60
2023-03-21T02:43:23.620Z,6.90
2023-03-21T02:43:34.773Z,7.20
2023-03-21T02:43:46.515Z,6.80
2023-03-21T02:43:57.345Z,7.20
2023-03-21T02:44:09.088Z,7.10
2023-03-21T02:44:22.231Z,7.30
2023-03-21T02:44:34.735Z,7.50
2023-03-21T02:44:46.467Z,7.70
2023-03-21T02:44:58.198Z,7.40
2023-03-21T02:45:09.927Z,7.10
2023-03-21T02:45:22.167Z,7.70
2023-03-21T02:45:33.903Z,7.50
2023-03-21T02:45:45.672Z,7.10
2023-03-21T02:45:57.499Z,6.80